sensor_id;sensor_type;location;lat;lon;timestamp;temperature;humidity
43346;DHT22;28937;51.160;4.146;2023-11-19T00:00:09;16.10;99.90
43346;DHT22;28937;51.160;4.146;2023-11-19T00:02:38;16.20;99.90
43346;DHT22;28937;51.160;4.146;2023-11-19T00:05:04;16.20;99.90
43346;DHT22;28937;51.160;4.146;2023-11-19T00:07:32;16.10;99.90
43346;DHT22;28937;51.160;4.146;2023-11-19T00:09:57;16.10;99.90
43346;DHT22;28937;51.160;4.146;2023-11-19T00:12:23;16.10;99.90
43346;DHT22;28937;51.160;4.146;2023-11-19T00:14:49;16.10;99.90
43346;DHT22;28937;51.160;4.146;2023-11-19T00:17:15;16.20;99.90
43346;DHT22;28937;51.160;4.146;2023-11-19T00:19:41;16.20;99.90
43346;DHT22;28937;51.160;4.146;2023-11-19T00:22:07;16.20;99.90
43346;DHT22;28937;51.160;4.146;2023-11-19T00:24:33;16.20;99.90
43346;DHT22;28937;51.160;4.146;2023-11-19T00:26:58;16.20;99.90
43346;DHT22;28937;51.160;4.146;2023-11-19T00:29:24;16.20;99.90
43346;DHT22;28937;51.160;4.146;2023-11-19T00:31:50;16.30;99.90
43346;DHT22;28937;51.160;4.146;2023-11-19T00:34:15;16.30;99.90
43346;DHT22;28937;51.160;4.146;2023-11-19T00:36:41;16.30;99.90
43346;DHT22;28937;51.160;4.146;2023-11-19T00:39:06;16.20;99.90
43346;DHT22;28937;51.160;4.146;2023-11-19T00:41:32;16.30;99.90
43346;DHT22;28937;51.160;4.146;2023-11-19T00:43:58;16.30;99.90
43346;DHT22;28937;51.160;4.146;2023-11-19T00:46:23;16.30;99.90
43346;DHT22;28937;51.160;4.146;2023-11-19T00:48:49;16.30;99.90
43346;DHT22;28937;51.160;4.146;2023-11-19T00:51:14;16.30;99.90
43346;DHT22;28937;51.160;4.146;2023-11-19T00:53:40;16.30;99.90
43346;DHT22;28937;51.160;4.146;2023-11-19T00:56:06;16.30;99.90
43346;DHT22;28937;51.160;4.146;2023-11-19T00:58:32;16.30;99.90
43346;DHT22;28937;51.160;4.146;2023-11-19T01:00:58;16.30;99.90
43346;DHT22;28937;51.160;4.146;2023-11-19T01:03:23;16.30;99.90
43346;DHT22;28937;51.160;4.146;2023-11-19T01:05:49;16.30;99.90
43346;DHT22;28937;51.160;4.146;2023-11-19T01:08:15;16.30;99.90
43346;DHT22;28937;51.160;4.146;2023-11-19T01:10:41;16.30;99.90
43346;DHT22;28937;51.160;4.146;2023-11-19T01:13:07;16.30;99.90
43346;DHT22;28937;51.160;4.146;2023-11-19T01:15:32;16.20;99.90
43346;DHT22;28937;51.160;4.146;2023-11-19T01:17:58;16.30;99.90
43346;DHT22;28937;51.160;4.146;2023-11-19T01:20:24;16.20;99.90
43346;DHT22;28937;51.160;4.146;2023-11-19T01:22:50;16.20;99.90
43346;DHT22;28937;51.160;4.146;2023-11-19T01:25:16;16.20;99.90
43346;DHT22;28937;51.160;4.146;2023-11-19T01:27:42;16.10;99.90
43346;DHT22;28937;51.160;4.146;2023-11-19T01:30:08;16.20;99.90
43346;DHT22;28937;51.160;4.146;2023-11-19T01:32:39;16.20;99.90
43346;DHT22;28937;51.160;4.146;2023-11-19T01:35:05;16.20;99.90
43346;DHT22;28937;51.160;4.146;2023-11-19T01:37:31;16.20;99.90
43346;DHT22;28937;51.160;4.146;2023-11-19T01:39:57;16.20;99.90
43346;DHT22;28937;51.160;4.146;2023-11-19T01:42:23;16.20;99.90
43346;DHT22;28937;51.160;4.146;2023-11-19T01:45:00;16.10;99.90
43346;DHT22;28937;51.160;4.146;2023-11-19T01:47:30;16.20;99.90
43346;DHT22;28937;51.160;4.146;2023-11-19T01:49:56;16.10;99.90
43346;DHT22;28937;51.160;4.146;2023-11-19T01:52:23;16.10;99.90
43346;DHT22;28937;51.160;4.146;2023-11-19T01:54:50;16.10;99.90
43346;DHT22;28937;51.160;4.146;2023-11-19T01:57:17;16.10;99.90
43346;DHT22;28937;51.160;4.146;2023-11-19T01:59:43;16.10;99.90
43346;DHT22;28937;51.160;4.146;2023-11-19T02:02:10;16.20;99.90
43346;DHT22;28937;51.160;4.146;2023-11-19T02:04:38;16.10;99.90
43346;DHT22;28937;51.160;4.146;2023-11-19T02:07:04;16.10;99.90
43346;DHT22;28937;51.160;4.146;2023-11-19T02:09:30;16.10;99.90
43346;DHT22;28937;51.160;4.146;2023-11-19T02:11:56;16.10;99.90
43346;DHT22;28937;51.160;4.146;2023-11-19T02:14:25;16.10;99.90
43346;DHT22;28937;51.160;4.146;2023-11-19T02:16:52;16.00;99.90
43346;DHT22;28937;51.160;4.146;2023-11-19T02:19:20;16.10;99.90
43346;DHT22;28937;51.160;4.146;2023-11-19T02:21:46;16.00;99.90
43346;DHT22;28937;51.160;4.146;2023-11-19T02:24:14;16.10;99.90
43346;DHT22;28937;51.160;4.146;2023-11-19T02:26:59;16.10;99.90
43346;DHT22;28937;51.160;4.146;2023-11-19T02:29:27;16.10;99.90
43346;DHT22;28937;51.160;4.146;2023-11-19T02:31:53;16.10;99.90
43346;DHT22;28937;51.160;4.146;2023-11-19T02:34:20;16.10;99.90
43346;DHT22;28937;51.160;4.146;2023-11-19T02:36:47;16.00;99.90
43346;DHT22;28937;51.160;4.146;2023-11-19T02:39:12;16.10;99.90
43346;DHT22;28937;51.160;4.146;2023-11-19T02:41:39;16.10;99.90
43346;DHT22;28937;51.160;4.146;2023-11-19T02:44:08;16.20;99.90
43346;DHT22;28937;51.160;4.146;2023-11-19T02:46:33;16.10;99.90
43346;DHT22;28937;51.160;4.146;2023-11-19T02:48:59;16.10;99.90
43346;DHT22;28937;51.160;4.146;2023-11-19T02:51:24;16.00;99.90
43346;DHT22;28937;51.160;4.146;2023-11-19T02:53:50;16.00;99.90
43346;DHT22;28937;51.160;4.146;2023-11-19T02:56:16;16.00;99.90
43346;DHT22;28937;51.160;4.146;2023-11-19T02:58:46;16.00;99.90
43346;DHT22;28937;51.160;4.146;2023-11-19T03:01:12;16.10;99.90
43346;DHT22;28937;51.160;4.146;2023-11-19T03:03:49;16.00;99.90
43346;DHT22;28937;51.160;4.146;2023-11-19T03:06:20;16.00;99.90
43346;DHT22;28937;51.160;4.146;2023-11-19T03:08:47;16.00;99.90
43346;DHT22;28937;51.160;4.146;2023-11-19T03:11:13;15.90;99.90
43346;DHT22;28937;51.160;4.146;2023-11-19T03:13:39;15.90;99.90
43346;DHT22;28937;51.160;4.146;2023-11-19T03:16:05;15.90;99.90
43346;DHT22;28937;51.160;4.146;2023-11-19T03:18:31;15.90;99.90
43346;DHT22;28937;51.160;4.146;2023-11-19T03:20:56;15.90;99.90
43346;DHT22;28937;51.160;4.146;2023-11-19T03:23:24;15.90;99.90
43346;DHT22;28937;51.160;4.146;2023-11-19T03:25:49;15.90;99.90
43346;DHT22;28937;51.160;4.146;2023-11-19T03:28:15;15.90;99.90
43346;DHT22;28937;51.160;4.146;2023-11-19T03:30:41;15.90;99.90
43346;DHT22;28937;51.160;4.146;2023-11-19T03:33:06;15.90;99.90
43346;DHT22;28937;51.160;4.146;2023-11-19T03:35:32;15.90;99.90
43346;DHT22;28937;51.160;4.146;2023-11-19T03:37:58;15.90;99.90
43346;DHT22;28937;51.160;4.146;2023-11-19T03:40:24;15.90;99.90
43346;DHT22;28937;51.160;4.146;2023-11-19T03:42:50;15.90;99.90
43346;DHT22;28937;51.160;4.146;2023-11-19T03:45:16;15.80;99.90
43346;DHT22;28937;51.160;4.146;2023-11-19T03:47:42;15.90;99.90
43346;DHT22;28937;51.160;4.146;2023-11-19T03:50:08;15.80;99.90
43346;DHT22;28937;51.160;4.146;2023-11-19T03:52:35;15.90;99.90
43346;DHT22;28937;51.160;4.146;2023-11-19T03:55:01;15.90;99.90
43346;DHT22;28937;51.160;4.146;2023-11-19T03:57:27;15.80;99.90
43346;DHT22;28937;51.160;4.146;2023-11-19T03:59:53;15.90;99.90
43346;DHT22;28937;51.160;4.146;2023-11-19T04:02:21;15.90;99.90
43346;DHT22;28937;51.160;4.146;2023-11-19T04:04:47;15.90;99.90
43346;DHT22;28937;51.160;4.146;2023-11-19T04:07:13;15.90;99.90
43346;DHT22;28937;51.160;4.146;2023-11-19T04:09:39;15.90;99.90
43346;DHT22;28937;51.160;4.146;2023-11-19T04:12:05;15.90;99.90
43346;DHT22;28937;51.160;4.146;2023-11-19T04:14:30;15.90;99.90
43346;DHT22;28937;51.160;4.146;2023-11-19T04:16:56;15.80;99.90
43346;DHT22;28937;51.160;4.146;2023-11-19T04:19:22;15.90;99.90
43346;DHT22;28937;51.160;4.146;2023-11-19T04:21:47;15.80;99.90
43346;DHT22;28937;51.160;4.146;2023-11-19T04:24:13;15.80;99.90
43346;DHT22;28937;51.160;4.146;2023-11-19T04:26:45;15.80;99.90
43346;DHT22;28937;51.160;4.146;2023-11-19T04:29:12;15.80;99.90
43346;DHT22;28937;51.160;4.146;2023-11-19T04:31:38;15.80;99.90
43346;DHT22;28937;51.160;4.146;2023-11-19T04:34:05;15.70;99.90
43346;DHT22;28937;51.160;4.146;2023-11-19T04:36:32;15.80;99.90
43346;DHT22;28937;51.160;4.146;2023-11-19T04:38:58;15.80;99.90
43346;DHT22;28937;51.160;4.146;2023-11-19T04:41:25;15.80;99.90
43346;DHT22;28937;51.160;4.146;2023-11-19T04:43:51;15.80;99.90
43346;DHT22;28937;51.160;4.146;2023-11-19T04:46:16;15.80;99.90
43346;DHT22;28937;51.160;4.146;2023-11-19T04:48:42;15.80;99.90
43346;DHT22;28937;51.160;4.146;2023-11-19T04:51:08;15.80;99.90
43346;DHT22;28937;51.160;4.146;2023-11-19T04:53:36;15.80;99.90
43346;DHT22;28937;51.160;4.146;2023-11-19T04:56:11;15.70;99.90
43346;DHT22;28937;51.160;4.146;2023-11-19T04:58:37;15.70;99.90
43346;DHT22;28937;51.160;4.146;2023-11-19T05:01:03;15.70;99.90
43346;DHT22;28937;51.160;4.146;2023-11-19T05:03:30;15.70;99.90
43346;DHT22;28937;51.160;4.146;2023-11-19T05:05:57;15.60;99.90
43346;DHT22;28937;51.160;4.146;2023-11-19T05:08:22;15.50;99.90
43346;DHT22;28937;51.160;4.146;2023-11-19T05:10:48;15.50;99.90
43346;DHT22;28937;51.160;4.146;2023-11-19T05:13:13;15.40;99.90
43346;DHT22;28937;51.160;4.146;2023-11-19T05:15:40;15.40;99.90
43346;DHT22;28937;51.160;4.146;2023-11-19T05:18:06;15.40;99.90
43346;DHT22;28937;51.160;4.146;2023-11-19T05:20:32;15.40;99.90
43346;DHT22;28937;51.160;4.146;2023-11-19T05:22:58;15.40;99.90
43346;DHT22;28937;51.160;4.146;2023-11-19T05:25:26;15.50;99.90
43346;DHT22;28937;51.160;4.146;2023-11-19T05:27:52;15.50;99.90
43346;DHT22;28937;51.160;4.146;2023-11-19T05:30:18;15.40;99.90
43346;DHT22;28937;51.160;4.146;2023-11-19T05:32:43;15.40;99.90
43346;DHT22;28937;51.160;4.146;2023-11-19T05:35:09;15.30;99.90
43346;DHT22;28937;51.160;4.146;2023-11-19T05:37:35;15.30;99.90
43346;DHT22;28937;51.160;4.146;2023-11-19T05:40:01;15.30;99.90
43346;DHT22;28937;51.160;4.146;2023-11-19T05:42:28;15.20;99.90
43346;DHT22;28937;51.160;4.146;2023-11-19T05:44:54;15.20;99.90
43346;DHT22;28937;51.160;4.146;2023-11-19T05:47:20;15.30;99.90
43346;DHT22;28937;51.160;4.146;2023-11-19T05:49:45;15.30;99.90
43346;DHT22;28937;51.160;4.146;2023-11-19T05:52:11;15.30;99.90
43346;DHT22;28937;51.160;4.146;2023-11-19T05:54:38;15.30;99.90
43346;DHT22;28937;51.160;4.146;2023-11-19T05:57:07;15.30;99.90
43346;DHT22;28937;51.160;4.146;2023-11-19T05:59:36;15.40;99.90
43346;DHT22;28937;51.160;4.146;2023-11-19T06:02:02;15.40;99.90
43346;DHT22;28937;51.160;4.146;2023-11-19T06:04:28;15.40;99.90
43346;DHT22;28937;51.160;4.146;2023-11-19T06:06:54;15.30;99.90
43346;DHT22;28937;51.160;4.146;2023-11-19T06:09:22;15.30;99.90
43346;DHT22;28937;51.160;4.146;2023-11-19T06:11:51;15.30;99.90
43346;DHT22;28937;51.160;4.146;2023-11-19T06:14:18;15.40;99.90
43346;DHT22;28937;51.160;4.146;2023-11-19T06:16:44;15.40;99.90
43346;DHT22;28937;51.160;4.146;2023-11-19T06:19:09;15.40;99.90
43346;DHT22;28937;51.160;4.146;2023-11-19T06:21:36;15.30;99.90
43346;DHT22;28937;51.160;4.146;2023-11-19T06:24:02;15.40;99.90
43346;DHT22;28937;51.160;4.146;2023-11-19T06:26:28;15.40;99.90
43346;DHT22;28937;51.160;4.146;2023-11-19T06:28:54;15.30;99.90
43346;DHT22;28937;51.160;4.146;2023-11-19T06:31:20;15.30;99.90
43346;DHT22;28937;51.160;4.146;2023-11-19T06:33:46;15.40;99.90
43346;DHT22;28937;51.160;4.146;2023-11-19T06:36:14;15.30;99.90
43346;DHT22;28937;51.160;4.146;2023-11-19T06:38:42;15.40;99.90
43346;DHT22;28937;51.160;4.146;2023-11-19T06:41:08;15.30;99.90
43346;DHT22;28937;51.160;4.146;2023-11-19T06:43:37;15.30;99.90
43346;DHT22;28937;51.160;4.146;2023-11-19T06:46:03;15.30;99.90
43346;DHT22;28937;51.160;4.146;2023-11-19T06:48:32;15.30;99.90
43346;DHT22;28937;51.160;4.146;2023-11-19T06:50:57;15.30;99.90
43346;DHT22;28937;51.160;4.146;2023-11-19T06:53:23;15.30;99.90
43346;DHT22;28937;51.160;4.146;2023-11-19T06:55:49;15.30;99.90
43346;DHT22;28937;51.160;4.146;2023-11-19T06:58:15;15.30;99.90
43346;DHT22;28937;51.160;4.146;2023-11-19T07:00:41;15.20;99.90
43346;DHT22;28937;51.160;4.146;2023-11-19T07:03:06;15.30;99.90
43346;DHT22;28937;51.160;4.146;2023-11-19T07:05:36;15.20;99.90
43346;DHT22;28937;51.160;4.146;2023-11-19T07:08:03;15.30;99.90
43346;DHT22;28937;51.160;4.146;2023-11-19T07:10:29;15.30;99.90
43346;DHT22;28937;51.160;4.146;2023-11-19T07:12:55;15.20;99.90
43346;DHT22;28937;51.160;4.146;2023-11-19T07:15:21;15.20;99.90
43346;DHT22;28937;51.160;4.146;2023-11-19T07:17:47;15.20;99.90
43346;DHT22;28937;51.160;4.146;2023-11-19T07:20:13;15.20;99.90
43346;DHT22;28937;51.160;4.146;2023-11-19T07:22:43;15.10;99.90
43346;DHT22;28937;51.160;4.146;2023-11-19T07:25:13;15.20;99.90
43346;DHT22;28937;51.160;4.146;2023-11-19T07:27:38;15.10;99.90
43346;DHT22;28937;51.160;4.146;2023-11-19T07:30:05;15.20;99.90
43346;DHT22;28937;51.160;4.146;2023-11-19T07:32:33;15.10;99.90
43346;DHT22;28937;51.160;4.146;2023-11-19T07:34:58;15.10;99.90
43346;DHT22;28937;51.160;4.146;2023-11-19T07:37:24;15.10;99.90
43346;DHT22;28937;51.160;4.146;2023-11-19T07:39:50;15.20;99.90
43346;DHT22;28937;51.160;4.146;2023-11-19T07:42:16;15.10;99.90
43346;DHT22;28937;51.160;4.146;2023-11-19T07:44:42;15.20;99.90
43346;DHT22;28937;51.160;4.146;2023-11-19T07:47:08;15.10;99.90
43346;DHT22;28937;51.160;4.146;2023-11-19T07:49:34;15.20;99.90
43346;DHT22;28937;51.160;4.146;2023-11-19T07:51:59;15.20;99.90
43346;DHT22;28937;51.160;4.146;2023-11-19T07:54:25;15.10;99.90
43346;DHT22;28937;51.160;4.146;2023-11-19T07:56:51;15.20;99.90
43346;DHT22;28937;51.160;4.146;2023-11-19T07:59:20;15.20;99.90
43346;DHT22;28937;51.160;4.146;2023-11-19T08:01:46;15.20;99.90
43346;DHT22;28937;51.160;4.146;2023-11-19T08:04:12;15.10;99.90
43346;DHT22;28937;51.160;4.146;2023-11-19T08:06:37;15.10;99.90
43346;DHT22;28937;51.160;4.146;2023-11-19T08:09:03;15.20;99.90
43346;DHT22;28937;51.160;4.146;2023-11-19T08:11:29;15.10;99.90
43346;DHT22;28937;51.160;4.146;2023-11-19T08:13:55;15.20;99.90
43346;DHT22;28937;51.160;4.146;2023-11-19T08:16:21;15.10;99.90
43346;DHT22;28937;51.160;4.146;2023-11-19T08:18:46;15.20;99.90
43346;DHT22;28937;51.160;4.146;2023-11-19T08:21:12;15.10;99.90
43346;DHT22;28937;51.160;4.146;2023-11-19T08:23:38;15.20;99.90
43346;DHT22;28937;51.160;4.146;2023-11-19T08:26:05;15.10;99.90
43346;DHT22;28937;51.160;4.146;2023-11-19T08:28:31;15.20;99.90
43346;DHT22;28937;51.160;4.146;2023-11-19T08:30:57;15.20;99.90
43346;DHT22;28937;51.160;4.146;2023-11-19T08:33:24;15.10;99.90
43346;DHT22;28937;51.160;4.146;2023-11-19T08:35:49;15.00;99.90
43346;DHT22;28937;51.160;4.146;2023-11-19T08:38:15;15.00;99.90
43346;DHT22;28937;51.160;4.146;2023-11-19T08:40:41;15.00;99.90
43346;DHT22;28937;51.160;4.146;2023-11-19T08:43:06;15.00;99.90
43346;DHT22;28937;51.160;4.146;2023-11-19T08:45:32;15.00;99.90
43346;DHT22;28937;51.160;4.146;2023-11-19T08:47:57;15.10;99.90
43346;DHT22;28937;51.160;4.146;2023-11-19T08:50:23;15.10;99.90
43346;DHT22;28937;51.160;4.146;2023-11-19T08:52:49;15.10;99.90
43346;DHT22;28937;51.160;4.146;2023-11-19T08:55:15;15.10;99.90
43346;DHT22;28937;51.160;4.146;2023-11-19T08:57:40;15.20;99.90
43346;DHT22;28937;51.160;4.146;2023-11-19T09:00:06;15.10;99.90
43346;DHT22;28937;51.160;4.146;2023-11-19T09:02:34;15.10;99.90
43346;DHT22;28937;51.160;4.146;2023-11-19T09:05:00;15.10;99.90
43346;DHT22;28937;51.160;4.146;2023-11-19T09:07:27;15.10;99.90
43346;DHT22;28937;51.160;4.146;2023-11-19T09:09:52;15.10;99.90
43346;DHT22;28937;51.160;4.146;2023-11-19T09:12:18;15.10;99.90
43346;DHT22;28937;51.160;4.146;2023-11-19T09:14:44;15.20;99.90
43346;DHT22;28937;51.160;4.146;2023-11-19T09:17:11;15.20;99.90
43346;DHT22;28937;51.160;4.146;2023-11-19T09:19:37;15.20;99.90
43346;DHT22;28937;51.160;4.146;2023-11-19T09:22:02;15.20;99.90
43346;DHT22;28937;51.160;4.146;2023-11-19T09:24:29;15.10;99.90
43346;DHT22;28937;51.160;4.146;2023-11-19T09:26:54;15.10;99.90
43346;DHT22;28937;51.160;4.146;2023-11-19T09:29:22;15.00;99.90
43346;DHT22;28937;51.160;4.146;2023-11-19T09:31:47;15.00;99.90
43346;DHT22;28937;51.160;4.146;2023-11-19T09:34:13;15.00;99.90
43346;DHT22;28937;51.160;4.146;2023-11-19T09:36:38;15.00;99.90
43346;DHT22;28937;51.160;4.146;2023-11-19T09:39:09;15.00;99.90
43346;DHT22;28937;51.160;4.146;2023-11-19T09:41:35;15.00;99.90
43346;DHT22;28937;51.160;4.146;2023-11-19T09:44:00;15.00;99.90
43346;DHT22;28937;51.160;4.146;2023-11-19T09:46:26;15.00;99.90
43346;DHT22;28937;51.160;4.146;2023-11-19T09:48:53;15.00;99.90
43346;DHT22;28937;51.160;4.146;2023-11-19T09:51:21;15.00;99.90
43346;DHT22;28937;51.160;4.146;2023-11-19T09:53:48;15.00;99.90
43346;DHT22;28937;51.160;4.146;2023-11-19T09:56:14;15.10;99.90
43346;DHT22;28937;51.160;4.146;2023-11-19T09:58:40;15.30;99.90
43346;DHT22;28937;51.160;4.146;2023-11-19T10:01:05;15.30;99.90
43346;DHT22;28937;51.160;4.146;2023-11-19T10:03:39;15.30;99.90
43346;DHT22;28937;51.160;4.146;2023-11-19T10:06:10;15.40;99.90
43346;DHT22;28937;51.160;4.146;2023-11-19T10:08:38;15.40;99.90
43346;DHT22;28937;51.160;4.146;2023-11-19T10:11:10;15.40;99.90
43346;DHT22;28937;51.160;4.146;2023-11-19T10:13:38;15.40;99.90
43346;DHT22;28937;51.160;4.146;2023-11-19T10:16:07;15.40;99.90
43346;DHT22;28937;51.160;4.146;2023-11-19T10:18:34;15.30;99.90
43346;DHT22;28937;51.160;4.146;2023-11-19T10:21:10;15.40;99.90
43346;DHT22;28937;51.160;4.146;2023-11-19T10:23:55;15.40;99.90
43346;DHT22;28937;51.160;4.146;2023-11-19T10:26:25;15.30;99.90
43346;DHT22;28937;51.160;4.146;2023-11-19T10:28:52;15.30;99.90
43346;DHT22;28937;51.160;4.146;2023-11-19T10:31:20;15.40;99.90
43346;DHT22;28937;51.160;4.146;2023-11-19T10:33:50;15.40;99.90
43346;DHT22;28937;51.160;4.146;2023-11-19T10:36:17;15.40;99.90
43346;DHT22;28937;51.160;4.146;2023-11-19T10:38:53;15.40;99.90
43346;DHT22;28937;51.160;4.146;2023-11-19T10:41:29;15.40;99.90
43346;DHT22;28937;51.160;4.146;2023-11-19T10:43:55;15.50;99.90
43346;DHT22;28937;51.160;4.146;2023-11-19T10:46:20;15.40;99.90
43346;DHT22;28937;51.160;4.146;2023-11-19T10:48:48;15.50;99.90
43346;DHT22;28937;51.160;4.146;2023-11-19T10:51:19;15.50;99.90
43346;DHT22;28937;51.160;4.146;2023-11-19T10:53:50;15.50;99.90
43346;DHT22;28937;51.160;4.146;2023-11-19T10:56:20;15.50;99.90
43346;DHT22;28937;51.160;4.146;2023-11-19T10:58:51;15.50;99.90
43346;DHT22;28937;51.160;4.146;2023-11-19T11:01:23;15.60;99.90
43346;DHT22;28937;51.160;4.146;2023-11-19T11:03:51;15.60;99.90
43346;DHT22;28937;51.160;4.146;2023-11-19T11:06:17;15.70;99.90
43346;DHT22;28937;51.160;4.146;2023-11-19T11:08:46;15.70;99.90
43346;DHT22;28937;51.160;4.146;2023-11-19T11:11:15;15.70;99.90
43346;DHT22;28937;51.160;4.146;2023-11-19T11:13:47;15.70;99.90
43346;DHT22;28937;51.160;4.146;2023-11-19T11:16:15;15.70;99.90
43346;DHT22;28937;51.160;4.146;2023-11-19T11:18:45;15.60;99.90
43346;DHT22;28937;51.160;4.146;2023-11-19T11:21:17;15.70;99.90
43346;DHT22;28937;51.160;4.146;2023-11-19T11:24:09;15.60;99.90
43346;DHT22;28937;51.160;4.146;2023-11-19T11:35:07;15.70;99.90
43346;DHT22;28937;51.160;4.146;2023-11-19T11:37:44;15.80;99.90
43346;DHT22;28937;51.160;4.146;2023-11-19T11:40:16;15.80;99.90
43346;DHT22;28937;51.160;4.146;2023-11-19T11:42:44;15.80;99.90
43346;DHT22;28937;51.160;4.146;2023-11-19T11:45:13;15.80;99.90
43346;DHT22;28937;51.160;4.146;2023-11-19T11:50:16;16.00;99.90
43346;DHT22;28937;51.160;4.146;2023-11-19T11:55:34;16.10;99.90
43346;DHT22;28937;51.160;4.146;2023-11-19T11:58:02;16.10;99.90
43346;DHT22;28937;51.160;4.146;2023-11-19T12:00:32;16.00;99.90
43346;DHT22;28937;51.160;4.146;2023-11-19T12:03:01;16.00;99.90
43346;DHT22;28937;51.160;4.146;2023-11-19T12:05:29;16.00;99.90
43346;DHT22;28937;51.160;4.146;2023-11-19T12:07:56;16.00;99.90
43346;DHT22;28937;51.160;4.146;2023-11-19T12:10:24;16.00;99.90
43346;DHT22;28937;51.160;4.146;2023-11-19T12:12:53;16.00;99.90
43346;DHT22;28937;51.160;4.146;2023-11-19T12:15:19;16.00;99.90
43346;DHT22;28937;51.160;4.146;2023-11-19T12:17:50;15.90;99.90
43346;DHT22;28937;51.160;4.146;2023-11-19T12:20:21;15.90;99.90
43346;DHT22;28937;51.160;4.146;2023-11-19T12:22:47;15.90;99.90
43346;DHT22;28937;51.160;4.146;2023-11-19T12:25:15;15.90;99.90
43346;DHT22;28937;51.160;4.146;2023-11-19T12:27:50;15.90;99.90
43346;DHT22;28937;51.160;4.146;2023-11-19T12:30:23;15.90;99.90
43346;DHT22;28937;51.160;4.146;2023-11-19T12:32:53;15.90;99.90
43346;DHT22;28937;51.160;4.146;2023-11-19T12:35:23;15.90;99.90
43346;DHT22;28937;51.160;4.146;2023-11-19T12:37:51;16.00;99.90
43346;DHT22;28937;51.160;4.146;2023-11-19T12:40:19;16.00;99.90
43346;DHT22;28937;51.160;4.146;2023-11-19T12:42:46;16.00;99.90
43346;DHT22;28937;51.160;4.146;2023-11-19T12:45:12;16.00;99.90
43346;DHT22;28937;51.160;4.146;2023-11-19T12:47:39;16.00;99.90
43346;DHT22;28937;51.160;4.146;2023-11-19T12:50:06;16.00;99.90
43346;DHT22;28937;51.160;4.146;2023-11-19T12:52:37;16.10;99.90
43346;DHT22;28937;51.160;4.146;2023-11-19T12:55:25;16.10;99.90
43346;DHT22;28937;51.160;4.146;2023-11-19T12:57:52;16.10;99.90
43346;DHT22;28937;51.160;4.146;2023-11-19T13:00:21;16.10;99.90
43346;DHT22;28937;51.160;4.146;2023-11-19T13:02:54;16.10;99.90
43346;DHT22;28937;51.160;4.146;2023-11-19T13:05:40;16.20;99.90
43346;DHT22;28937;51.160;4.146;2023-11-19T13:08:08;16.20;99.90
43346;DHT22;28937;51.160;4.146;2023-11-19T13:10:54;16.20;99.90
43346;DHT22;28937;51.160;4.146;2023-11-19T13:13:19;16.30;99.90
43346;DHT22;28937;51.160;4.146;2023-11-19T13:15:45;16.30;99.90
43346;DHT22;28937;51.160;4.146;2023-11-19T13:18:12;16.30;99.90
43346;DHT22;28937;51.160;4.146;2023-11-19T13:20:38;16.50;99.90
43346;DHT22;28937;51.160;4.146;2023-11-19T13:23:05;16.50;99.90
43346;DHT22;28937;51.160;4.146;2023-11-19T13:25:32;16.50;99.90
43346;DHT22;28937;51.160;4.146;2023-11-19T13:27:58;16.40;99.90
43346;DHT22;28937;51.160;4.146;2023-11-19T13:30:25;16.40;99.90
43346;DHT22;28937;51.160;4.146;2023-11-19T13:32:51;16.40;99.90
43346;DHT22;28937;51.160;4.146;2023-11-19T13:35:18;16.50;99.90
43346;DHT22;28937;51.160;4.146;2023-11-19T13:37:44;16.50;99.90
43346;DHT22;28937;51.160;4.146;2023-11-19T13:40:10;16.60;99.90
43346;DHT22;28937;51.160;4.146;2023-11-19T13:42:41;16.60;99.90
43346;DHT22;28937;51.160;4.146;2023-11-19T13:45:14;16.50;99.90
43346;DHT22;28937;51.160;4.146;2023-11-19T13:47:41;16.50;99.90
43346;DHT22;28937;51.160;4.146;2023-11-19T13:50:15;16.50;99.90
43346;DHT22;28937;51.160;4.146;2023-11-19T13:52:42;16.60;99.90
43346;DHT22;28937;51.160;4.146;2023-11-19T13:55:09;16.60;99.90
43346;DHT22;28937;51.160;4.146;2023-11-19T13:57:39;16.50;99.90
43346;DHT22;28937;51.160;4.146;2023-11-19T14:00:07;16.60;99.90
43346;DHT22;28937;51.160;4.146;2023-11-19T14:02:36;16.60;99.90
43346;DHT22;28937;51.160;4.146;2023-11-19T14:05:02;16.60;99.90
43346;DHT22;28937;51.160;4.146;2023-11-19T14:07:28;16.60;99.90
43346;DHT22;28937;51.160;4.146;2023-11-19T14:09:54;16.70;99.90
43346;DHT22;28937;51.160;4.146;2023-11-19T14:12:20;16.70;99.90
43346;DHT22;28937;51.160;4.146;2023-11-19T14:14:45;16.80;99.90
43346;DHT22;28937;51.160;4.146;2023-11-19T14:17:11;16.80;99.90
43346;DHT22;28937;51.160;4.146;2023-11-19T14:19:38;16.70;99.90
43346;DHT22;28937;51.160;4.146;2023-11-19T14:22:04;16.80;99.90
43346;DHT22;28937;51.160;4.146;2023-11-19T14:24:31;16.80;99.90
43346;DHT22;28937;51.160;4.146;2023-11-19T14:26:56;16.80;99.90
43346;DHT22;28937;51.160;4.146;2023-11-19T14:29:24;16.80;99.90
43346;DHT22;28937;51.160;4.146;2023-11-19T14:31:52;16.80;99.90
43346;DHT22;28937;51.160;4.146;2023-11-19T14:34:19;16.80;99.90
43346;DHT22;28937;51.160;4.146;2023-11-19T14:36:45;16.90;99.90
43346;DHT22;28937;51.160;4.146;2023-11-19T14:39:11;16.90;99.90
43346;DHT22;28937;51.160;4.146;2023-11-19T14:41:37;16.90;99.90
43346;DHT22;28937;51.160;4.146;2023-11-19T14:44:03;16.90;99.90
43346;DHT22;28937;51.160;4.146;2023-11-19T14:46:29;17.00;99.90
43346;DHT22;28937;51.160;4.146;2023-11-19T14:48:55;16.90;99.90
43346;DHT22;28937;51.160;4.146;2023-11-19T14:51:21;17.00;99.90
43346;DHT22;28937;51.160;4.146;2023-11-19T14:53:47;17.00;99.90
43346;DHT22;28937;51.160;4.146;2023-11-19T14:56:13;17.00;99.90
43346;DHT22;28937;51.160;4.146;2023-11-19T14:58:39;17.00;99.90
43346;DHT22;28937;51.160;4.146;2023-11-19T15:01:05;16.90;99.90
43346;DHT22;28937;51.160;4.146;2023-11-19T15:03:31;16.90;99.90
43346;DHT22;28937;51.160;4.146;2023-11-19T15:09:08;17.00;99.90
43346;DHT22;28937;51.160;4.146;2023-11-19T15:11:35;17.00;99.90
43346;DHT22;28937;51.160;4.146;2023-11-19T15:14:00;17.00;99.90
43346;DHT22;28937;51.160;4.146;2023-11-19T15:16:26;16.90;99.90
43346;DHT22;28937;51.160;4.146;2023-11-19T15:18:57;16.90;99.90
43346;DHT22;28937;51.160;4.146;2023-11-19T15:21:25;17.00;99.90
43346;DHT22;28937;51.160;4.146;2023-11-19T15:23:52;17.10;99.90
43346;DHT22;28937;51.160;4.146;2023-11-19T15:26:18;17.00;99.90
43346;DHT22;28937;51.160;4.146;2023-11-19T15:28:45;17.20;99.90
43346;DHT22;28937;51.160;4.146;2023-11-19T15:31:10;17.40;99.90
43346;DHT22;28937;51.160;4.146;2023-11-19T15:33:36;17.30;99.90
43346;DHT22;28937;51.160;4.146;2023-11-19T15:36:01;17.20;99.90
43346;DHT22;28937;51.160;4.146;2023-11-19T15:38:33;17.30;99.90
43346;DHT22;28937;51.160;4.146;2023-11-19T15:40:59;17.30;99.90
43346;DHT22;28937;51.160;4.146;2023-11-19T15:43:24;17.40;99.90
43346;DHT22;28937;51.160;4.146;2023-11-19T15:45:50;17.30;99.90